sensor_id;sensor_type;location;lat;lon;timestamp;P1;durP1;ratioP1;P2;durP2;ratioP2
38182;SDS011;23991;52.430;10.586;2022-09-29T00:00:08;12.57;;;5.72;;
38182;SDS011;23991;52.430;10.586;2022-09-29T00:02:34;9.45;;;6.40;;
38182;SDS011;23991;52.430;10.586;2022-09-29T00:04:59;8.38;;;5.28;;
38182;SDS011;23991;52.430;10.586;2022-09-29T00:07:25;7.30;;;5.32;;
38182;SDS011;23991;52.430;10.586;2022-09-29T00:09:52;7.88;;;5.18;;
38182;SDS011;23991;52.430;10.586;2022-09-29T00:12:18;8.02;;;5.60;;
38182;SDS011;23991;52.430;10.586;2022-09-29T00:14:44;7.63;;;5.47;;
38182;SDS011;23991;52.430;10.586;2022-09-29T00:17:09;7.93;;;5.63;;
38182;SDS011;23991;52.430;10.586;2022-09-29T00:19:35;9.75;;;5.63;;
38182;SDS011;23991;52.430;10.586;2022-09-29T00:22:01;7.95;;;5.47;;
38182;SDS011;23991;52.430;10.586;2022-09-29T00:24:26;8.27;;;5.47;;
38182;SDS011;23991;52.430;10.586;2022-09-29T00:26:52;8.57;;;6.28;;
38182;SDS011;23991;52.430;10.586;2022-09-29T00:29:18;7.53;;;5.47;;
38182;SDS011;23991;52.430;10.586;2022-09-29T00:31:43;7.50;;;5.70;;
38182;SDS011;23991;52.430;10.586;2022-09-29T00:34:09;8.80;;;5.68;;
38182;SDS011;23991;52.430;10.586;2022-09-29T00:36:34;8.80;;;5.72;;
38182;SDS011;23991;52.430;10.586;2022-09-29T00:39:00;8.95;;;5.22;;
38182;SDS011;23991;52.430;10.586;2022-09-29T00:41:27;7.00;;;4.85;;
38182;SDS011;23991;52.430;10.586;2022-09-29T00:44:02;7.23;;;4.70;;
38182;SDS011;23991;52.430;10.586;2022-09-29T00:52:31;9.10;;;5.55;;
38182;SDS011;23991;52.430;10.586;2022-09-29T00:57:28;7.97;;;5.40;;
38182;SDS011;23991;52.430;10.586;2022-09-29T01:02:31;6.97;;;4.82;;
38182;SDS011;23991;52.430;10.586;2022-09-29T01:04:59;10.48;;;5.10;;
38182;SDS011;23991;52.430;10.586;2022-09-29T01:07:27;7.22;;;5.28;;
38182;SDS011;23991;52.430;10.586;2022-09-29T01:09:53;7.78;;;4.45;;
38182;SDS011;23991;52.430;10.586;2022-09-29T01:12:21;7.05;;;4.47;;
38182;SDS011;23991;52.430;10.586;2022-09-29T01:14:47;10.30;;;5.78;;
38182;SDS011;23991;52.430;10.586;2022-09-29T01:17:13;7.65;;;5.03;;
38182;SDS011;23991;52.430;10.586;2022-09-29T01:22:49;7.05;;;4.50;;
38182;SDS011;23991;52.430;10.586;2022-09-29T01:33:40;6.18;;;4.03;;
38182;SDS011;23991;52.430;10.586;2022-09-29T01:41:50;9.50;;;4.90;;
38182;SDS011;23991;52.430;10.586;2022-09-29T01:49:42;6.35;;;4.38;;
38182;SDS011;23991;52.430;10.586;2022-09-29T01:52:12;6.53;;;4.25;;
38182;SDS011;23991;52.430;10.586;2022-09-29T01:54:47;6.70;;;4.45;;
38182;SDS011;23991;52.430;10.586;2022-09-29T01:57:33;5.97;;;4.32;;
38182;SDS011;23991;52.430;10.586;2022-09-29T02:00:07;6.03;;;3.90;;
38182;SDS011;23991;52.430;10.586;2022-09-29T02:02:49;5.68;;;4.38;;
38182;SDS011;23991;52.430;10.586;2022-09-29T02:05:22;6.00;;;4.18;;
38182;SDS011;23991;52.430;10.586;2022-09-29T02:07:58;5.78;;;4.20;;
38182;SDS011;23991;52.430;10.586;2022-09-29T02:10:38;5.95;;;4.10;;
38182;SDS011;23991;52.430;10.586;2022-09-29T02:13:10;7.00;;;4.13;;
38182;SDS011;23991;52.430;10.586;2022-09-29T02:15:39;5.27;;;3.13;;
38182;SDS011;23991;52.430;10.586;2022-09-29T02:18:12;8.13;;;4.05;;
38182;SDS011;23991;52.430;10.586;2022-09-29T02:20:42;5.45;;;3.90;;
38182;SDS011;23991;52.430;10.586;2022-09-29T02:23:10;5.68;;;4.25;;
38182;SDS011;23991;52.430;10.586;2022-09-29T02:25:36;7.18;;;3.97;;
38182;SDS011;23991;52.430;10.586;2022-09-29T02:28:04;5.53;;;4.07;;
38182;SDS011;23991;52.430;10.586;2022-09-29T02:30:30;6.72;;;3.90;;
38182;SDS011;23991;52.430;10.586;2022-09-29T02:32:56;6.05;;;3.75;;
38182;SDS011;23991;52.430;10.586;2022-09-29T02:35:22;5.22;;;4.00;;
38182;SDS011;23991;52.430;10.586;2022-09-29T02:38:59;7.03;;;4.07;;
38182;SDS011;23991;52.430;10.586;2022-09-29T02:41:16;5.55;;;3.55;;
38182;SDS011;23991;52.430;10.586;2022-09-29T02:46:33;5.40;;;3.95;;
38182;SDS011;23991;52.430;10.586;2022-09-29T03:00:20;5.70;;;3.70;;
38182;SDS011;23991;52.430;10.586;2022-09-29T03:02:47;6.50;;;3.60;;
38182;SDS011;23991;52.430;10.586;2022-09-29T03:05:14;5.57;;;4.00;;
38182;SDS011;23991;52.430;10.586;2022-09-29T03:07:41;6.28;;;4.13;;
38182;SDS011;23991;52.430;10.586;2022-09-29T03:10:08;5.43;;;3.85;;
38182;SDS011;23991;52.430;10.586;2022-09-29T03:12:35;5.18;;;3.42;;
38182;SDS011;23991;52.430;10.586;2022-09-29T03:15:01;5.93;;;3.85;;
38182;SDS011;23991;52.430;10.586;2022-09-29T03:17:27;5.40;;;3.97;;
38182;SDS011;23991;52.430;10.586;2022-09-29T03:19:52;6.70;;;3.60;;
38182;SDS011;23991;52.430;10.586;2022-09-29T03:22:18;7.97;;;3.80;;
38182;SDS011;23991;52.430;10.586;2022-09-29T03:24:44;7.78;;;4.10;;
38182;SDS011;23991;52.430;10.586;2022-09-29T03:27:09;7.15;;;3.60;;
38182;SDS011;23991;52.430;10.586;2022-09-29T03:29:36;5.95;;;3.92;;
38182;SDS011;23991;52.430;10.586;2022-09-29T03:32:02;6.00;;;3.88;;
38182;SDS011;23991;52.430;10.586;2022-09-29T03:34:29;8.95;;;4.70;;
38182;SDS011;23991;52.430;10.586;2022-09-29T03:36:56;5.40;;;3.80;;
38182;SDS011;23991;52.430;10.586;2022-09-29T03:39:22;7.63;;;3.63;;
38182;SDS011;23991;52.430;10.586;2022-09-29T03:41:48;8.98;;;4.00;;
38182;SDS011;23991;52.430;10.586;2022-09-29T03:44:14;5.88;;;4.10;;
38182;SDS011;23991;52.430;10.586;2022-09-29T03:46:40;7.10;;;4.10;;
38182;SDS011;23991;52.430;10.586;2022-09-29T03:49:07;6.22;;;4.15;;
38182;SDS011;23991;52.430;10.586;2022-09-29T03:51:35;6.80;;;4.43;;
38182;SDS011;23991;52.430;10.586;2022-09-29T03:54:02;7.55;;;4.65;;
38182;SDS011;23991;52.430;10.586;2022-09-29T03:56:27;8.88;;;3.97;;
38182;SDS011;23991;52.430;10.586;2022-09-29T03:58:53;6.65;;;4.20;;
38182;SDS011;23991;52.430;10.586;2022-09-29T04:01:19;5.97;;;4.10;;
38182;SDS011;23991;52.430;10.586;2022-09-29T04:03:44;6.75;;;4.50;;
38182;SDS011;23991;52.430;10.586;2022-09-29T04:06:10;6.68;;;4.40;;
38182;SDS011;23991;52.430;10.586;2022-09-29T04:08:36;5.63;;;3.78;;
38182;SDS011;23991;52.430;10.586;2022-09-29T04:11:02;6.78;;;4.75;;
38182;SDS011;23991;52.430;10.586;2022-09-29T04:13:28;5.85;;;3.97;;
38182;SDS011;23991;52.430;10.586;2022-09-29T04:16:00;5.80;;;4.15;;
38182;SDS011;23991;52.430;10.586;2022-09-29T04:18:27;8.20;;;4.53;;
38182;SDS011;23991;52.430;10.586;2022-09-29T04:20:53;11.00;;;4.90;;
38182;SDS011;23991;52.430;10.586;2022-09-29T04:23:21;9.23;;;4.85;;
38182;SDS011;23991;52.430;10.586;2022-09-29T04:25:47;9.05;;;5.43;;
38182;SDS011;23991;52.430;10.586;2022-09-29T04:28:13;9.95;;;5.57;;
38182;SDS011;23991;52.430;10.586;2022-09-29T04:30:39;8.05;;;5.50;;
38182;SDS011;23991;52.430;10.586;2022-09-29T04:33:04;8.23;;;5.38;;
38182;SDS011;23991;52.430;10.586;2022-09-29T04:35:30;10.52;;;5.18;;
38182;SDS011;23991;52.430;10.586;2022-09-29T04:37:56;8.13;;;5.72;;
38182;SDS011;23991;52.430;10.586;2022-09-29T04:40:23;9.27;;;5.88;;
38182;SDS011;23991;52.430;10.586;2022-09-29T04:42:49;10.75;;;5.93;;
38182;SDS011;23991;52.430;10.586;2022-09-29T04:45:15;10.70;;;6.25;;
38182;SDS011;23991;52.430;10.586;2022-09-29T04:47:41;9.98;;;5.82;;
38182;SDS011;23991;52.430;10.586;2022-09-29T04:50:07;8.52;;;6.07;;
38182;SDS011;23991;52.430;10.586;2022-09-29T04:52:33;10.43;;;6.57;;
38182;SDS011;23991;52.430;10.586;2022-09-29T04:55:00;10.20;;;6.65;;
38182;SDS011;23991;52.430;10.586;2022-09-29T04:57:27;12.35;;;6.97;;
38182;SDS011;23991;52.430;10.586;2022-09-29T04:59:52;11.77;;;6.97;;
38182;SDS011;23991;52.430;10.586;2022-09-29T05:02:18;13.27;;;6.75;;
38182;SDS011;23991;52.430;10.586;2022-09-29T05:04:44;9.98;;;6.78;;
38182;SDS011;23991;52.430;10.586;2022-09-29T05:07:11;12.07;;;7.05;;
38182;SDS011;23991;52.430;10.586;2022-09-29T05:09:38;8.98;;;6.07;;
38182;SDS011;23991;52.430;10.586;2022-09-29T05:12:04;10.00;;;6.53;;
38182;SDS011;23991;52.430;10.586;2022-09-29T05:14:29;11.77;;;6.95;;
38182;SDS011;23991;52.430;10.586;2022-09-29T05:16:55;12.45;;;7.70;;
38182;SDS011;23991;52.430;10.586;2022-09-29T05:19:21;10.02;;;6.38;;
38182;SDS011;23991;52.430;10.586;2022-09-29T05:21:47;10.02;;;6.88;;
38182;SDS011;23991;52.430;10.586;2022-09-29T05:24:12;8.82;;;6.22;;
38182;SDS011;23991;52.430;10.586;2022-09-29T05:26:38;11.40;;;6.70;;
38182;SDS011;23991;52.430;10.586;2022-09-29T05:29:04;10.05;;;6.80;;
38182;SDS011;23991;52.430;10.586;2022-09-29T05:31:29;10.40;;;6.07;;
38182;SDS011;23991;52.430;10.586;2022-09-29T05:33:55;11.63;;;6.28;;
38182;SDS011;23991;52.430;10.586;2022-09-29T05:36:21;10.10;;;7.03;;
38182;SDS011;23991;52.430;10.586;2022-09-29T05:38:48;14.98;;;6.55;;
38182;SDS011;23991;52.430;10.586;2022-09-29T05:41:14;12.07;;;6.57;;
38182;SDS011;23991;52.430;10.586;2022-09-29T05:43:42;10.50;;;6.43;;
38182;SDS011;23991;52.430;10.586;2022-09-29T05:46:08;9.15;;;5.90;;
38182;SDS011;23991;52.430;10.586;2022-09-29T05:48:34;9.90;;;6.53;;
38182;SDS011;23991;52.430;10.586;2022-09-29T05:51:05;11.10;;;6.00;;
38182;SDS011;23991;52.430;10.586;2022-09-29T05:53:35;9.07;;;6.10;;
38182;SDS011;23991;52.430;10.586;2022-09-29T05:56:09;11.10;;;6.25;;
38182;SDS011;23991;52.430;10.586;2022-09-29T05:58:36;10.07;;;6.75;;
38182;SDS011;23991;52.430;10.586;2022-09-29T06:01:16;10.68;;;6.07;;
38182;SDS011;23991;52.430;10.586;2022-09-29T06:03:44;10.93;;;6.72;;
38182;SDS011;23991;52.430;10.586;2022-09-29T06:06:18;13.70;;;7.32;;
38182;SDS011;23991;52.430;10.586;2022-09-29T06:08:45;11.88;;;6.85;;
38182;SDS011;23991;52.430;10.586;2022-09-29T06:11:13;13.43;;;6.93;;
38182;SDS011;23991;52.430;10.586;2022-09-29T06:13:40;10.95;;;6.90;;
38182;SDS011;23991;52.430;10.586;2022-09-29T06:16:08;10.57;;;6.53;;
38182;SDS011;23991;52.430;10.586;2022-09-29T06:18:34;9.07;;;6.03;;
38182;SDS011;23991;52.430;10.586;2022-09-29T06:21:04;10.43;;;5.75;;
38182;SDS011;23991;52.430;10.586;2022-09-29T06:23:34;12.45;;;7.53;;
38182;SDS011;23991;52.430;10.586;2022-09-29T06:26:01;9.07;;;6.43;;
38182;SDS011;23991;52.430;10.586;2022-09-29T06:28:29;9.15;;;5.93;;
38182;SDS011;23991;52.430;10.586;2022-09-29T06:30:59;11.02;;;6.32;;
38182;SDS011;23991;52.430;10.586;2022-09-29T06:33:29;12.07;;;6.57;;
38182;SDS011;23991;52.430;10.586;2022-09-29T06:35:57;9.50;;;6.38;;
38182;SDS011;23991;52.430;10.586;2022-09-29T06:38:42;11.70;;;6.55;;
38182;SDS011;23991;52.430;10.586;2022-09-29T06:41:09;11.75;;;6.43;;
38182;SDS011;23991;52.430;10.586;2022-09-29T06:43:34;13.15;;;6.10;;
38182;SDS011;23991;52.430;10.586;2022-09-29T06:46:00;12.15;;;6.97;;
38182;SDS011;23991;52.430;10.586;2022-09-29T06:48:27;11.35;;;6.88;;
38182;SDS011;23991;52.430;10.586;2022-09-29T06:50:54;11.48;;;7.65;;
38182;SDS011;23991;52.430;10.586;2022-09-29T06:53:20;14.07;;;7.82;;
38182;SDS011;23991;52.430;10.586;2022-09-29T06:55:53;12.95;;;8.05;;
38182;SDS011;23991;52.430;10.586;2022-09-29T06:58:20;14.55;;;8.80;;
38182;SDS011;23991;52.430;10.586;2022-09-29T07:00:46;13.75;;;8.23;;
38182;SDS011;23991;52.430;10.586;2022-09-29T07:03:12;15.15;;;9.35;;
38182;SDS011;23991;52.430;10.586;2022-09-29T07:05:38;15.25;;;9.13;;
38182;SDS011;23991;52.430;10.586;2022-09-29T07:08:04;14.98;;;9.45;;
38182;SDS011;23991;52.430;10.586;2022-09-29T07:10:29;14.55;;;8.57;;
38182;SDS011;23991;52.430;10.586;2022-09-29T07:12:55;14.07;;;8.68;;
38182;SDS011;23991;52.430;10.586;2022-09-29T07:15:21;18.60;;;8.52;;
38182;SDS011;23991;52.430;10.586;2022-09-29T07:17:50;14.90;;;9.07;;
38182;SDS011;23991;52.430;10.586;2022-09-29T07:20:16;12.88;;;8.98;;
38182;SDS011;23991;52.430;10.586;2022-09-29T07:22:45;15.65;;;10.18;;
38182;SDS011;23991;52.430;10.586;2022-09-29T07:25:11;15.35;;;9.60;;
38182;SDS011;23991;52.430;10.586;2022-09-29T07:27:37;13.75;;;9.43;;
38182;SDS011;23991;52.430;10.586;2022-09-29T07:30:03;14.82;;;9.63;;
38182;SDS011;23991;52.430;10.586;2022-09-29T07:32:29;20.10;;;10.38;;
38182;SDS011;23991;52.430;10.586;2022-09-29T07:34:56;15.73;;;10.30;;
38182;SDS011;23991;52.430;10.586;2022-09-29T07:37:23;16.58;;;10.10;;
38182;SDS011;23991;52.430;10.586;2022-09-29T07:39:49;15.50;;;10.25;;
38182;SDS011;23991;52.430;10.586;2022-09-29T07:42:18;17.42;;;10.13;;
38182;SDS011;23991;52.430;10.586;2022-09-29T07:44:45;15.43;;;9.73;;
38182;SDS011;23991;52.430;10.586;2022-09-29T07:47:11;19.00;;;10.38;;
38182;SDS011;23991;52.430;10.586;2022-09-29T07:49:37;15.98;;;10.40;;
38182;SDS011;23991;52.430;10.586;2022-09-29T07:52:03;17.38;;;10.63;;
38182;SDS011;23991;52.430;10.586;2022-09-29T07:54:29;17.63;;;10.63;;
38182;SDS011;23991;52.430;10.586;2022-09-29T07:56:55;16.52;;;10.32;;
38182;SDS011;23991;52.430;10.586;2022-09-29T07:59:24;13.15;;;9.70;;
38182;SDS011;23991;52.430;10.586;2022-09-29T08:01:51;16.00;;;10.38;;
38182;SDS011;23991;52.430;10.586;2022-09-29T08:04:17;13.57;;;10.13;;
38182;SDS011;23991;52.430;10.586;2022-09-29T08:06:42;15.18;;;10.68;;
38182;SDS011;23991;52.430;10.586;2022-09-29T08:09:08;13.18;;;9.32;;
38182;SDS011;23991;52.430;10.586;2022-09-29T08:11:38;12.75;;;9.15;;
38182;SDS011;23991;52.430;10.586;2022-09-29T08:14:05;17.48;;;10.13;;
38182;SDS011;23991;52.430;10.586;2022-09-29T08:16:32;14.20;;;10.38;;
38182;SDS011;23991;52.430;10.586;2022-09-29T08:18:58;15.25;;;10.90;;
38182;SDS011;23991;52.430;10.586;2022-09-29T08:21:24;14.43;;;10.30;;
38182;SDS011;23991;52.430;10.586;2022-09-29T08:23:50;15.07;;;10.15;;
38182;SDS011;23991;52.430;10.586;2022-09-29T08:26:17;13.93;;;9.60;;
38182;SDS011;23991;52.430;10.586;2022-09-29T08:28:44;14.48;;;10.05;;
38182;SDS011;23991;52.430;10.586;2022-09-29T08:31:11;15.73;;;10.00;;
38182;SDS011;23991;52.430;10.586;2022-09-29T08:33:38;16.13;;;10.60;;
38182;SDS011;23991;52.430;10.586;2022-09-29T08:36:04;13.50;;;9.75;;
38182;SDS011;23991;52.430;10.586;2022-09-29T08:38:38;14.38;;;10.68;;
38182;SDS011;23991;52.430;10.586;2022-09-29T08:41:08;13.35;;;9.98;;
38182;SDS011;23991;52.430;10.586;2022-09-29T08:49:28;15.52;;;9.60;;
38182;SDS011;23991;52.430;10.586;2022-09-29T08:52:00;11.93;;;9.15;;
38182;SDS011;23991;52.430;10.586;2022-09-29T08:54:32;13.45;;;9.32;;
38182;SDS011;23991;52.430;10.586;2022-09-29T08:56:59;11.82;;;8.60;;
38182;SDS011;23991;52.430;10.586;2022-09-29T08:59:26;12.68;;;10.07;;
38182;SDS011;23991;52.430;10.586;2022-09-29T09:01:59;11.93;;;8.63;;
38182;SDS011;23991;52.430;10.586;2022-09-29T09:04:51;12.95;;;9.82;;
38182;SDS011;23991;52.430;10.586;2022-09-29T09:07:38;11.88;;;8.15;;
38182;SDS011;23991;52.430;10.586;2022-09-29T09:13:05;10.25;;;8.20;;
38182;SDS011;23991;52.430;10.586;2022-09-29T09:23:52;13.50;;;8.68;;
38182;SDS011;23991;52.430;10.586;2022-09-29T09:26:18;14.73;;;8.65;;
38182;SDS011;23991;52.430;10.586;2022-09-29T09:29:26;11.38;;;8.07;;
38182;SDS011;23991;52.430;10.586;2022-09-29T09:40:00;11.02;;;8.05;;
38182;SDS011;23991;52.430;10.586;2022-09-29T09:42:30;9.33;;;7.00;;
38182;SDS011;23991;52.430;10.586;2022-09-29T09:45:05;10.65;;;7.05;;
38182;SDS011;23991;52.430;10.586;2022-09-29T09:47:37;9.93;;;7.25;;
38182;SDS011;23991;52.430;10.586;2022-09-29T09:50:11;8.52;;;7.00;;
38182;SDS011;23991;52.430;10.586;2022-09-29T09:55:17;11.30;;;6.50;;
38182;SDS011;23991;52.430;10.586;2022-09-29T10:00:25;13.18;;;7.03;;
38182;SDS011;23991;52.430;10.586;2022-09-29T10:02:57;10.80;;;6.68;;
38182;SDS011;23991;52.430;10.586;2022-09-29T10:05:38;8.75;;;6.80;;
38182;SDS011;23991;52.430;10.586;2022-09-29T10:08:08;8.27;;;6.38;;
38182;SDS011;23991;52.430;10.586;2022-09-29T10:10:36;11.15;;;6.70;;
38182;SDS011;23991;52.430;10.586;2022-09-29T10:13:06;11.27;;;7.15;;
38182;SDS011;23991;52.430;10.586;2022-09-29T10:15:39;10.68;;;7.30;;
38182;SDS011;23991;52.430;10.586;2022-09-29T10:21:01;12.48;;;7.45;;
38182;SDS011;23991;52.430;10.586;2022-09-29T10:23:31;8.15;;;6.60;;
38182;SDS011;23991;52.430;10.586;2022-09-29T10:26:01;10.57;;;7.00;;
38182;SDS011;23991;52.430;10.586;2022-09-29T10:31:28;10.00;;;7.13;;
38182;SDS011;23991;52.430;10.586;2022-09-29T10:36:49;9.50;;;6.93;;
38182;SDS011;23991;52.430;10.586;2022-09-29T10:39:29;9.05;;;6.60;;
38182;SDS011;23991;52.430;10.586;2022-09-29T10:42:27;10.50;;;5.95;;
38182;SDS011;23991;52.430;10.586;2022-09-29T10:47:41;7.30;;;5.93;;
38182;SDS011;23991;52.430;10.586;2022-09-29T10:52:40;8.10;;;5.53;;
38182;SDS011;23991;52.430;10.586;2022-09-29T10:55:14;8.38;;;6.47;;
38182;SDS011;23991;52.430;10.586;2022-09-29T10:57:43;8.48;;;5.78;;
38182;SDS011;23991;52.430;10.586;2022-09-29T11:00:23;7.35;;;5.40;;
38182;SDS011;23991;52.430;10.586;2022-09-29T11:02:56;10.55;;;5.32;;
38182;SDS011;23991;52.430;10.586;2022-09-29T11:08:19;7.57;;;4.88;;
38182;SDS011;23991;52.430;10.586;2022-09-29T11:10:55;7.88;;;4.60;;
38182;SDS011;23991;52.430;10.586;2022-09-29T11:13:33;6.13;;;4.10;;
38182;SDS011;23991;52.430;10.586;2022-09-29T11:16:20;6.40;;;4.57;;
38182;SDS011;23991;52.430;10.586;2022-09-29T11:18:53;5.65;;;4.50;;
38182;SDS011;23991;52.430;10.586;2022-09-29T11:24:48;7.38;;;5.18;;
38182;SDS011;23991;52.430;10.586;2022-09-29T11:27:35;9.80;;;4.70;;
38182;SDS011;23991;52.430;10.586;2022-09-29T11:35:48;6.25;;;4.13;;
38182;SDS011;23991;52.430;10.586;2022-09-29T11:43:52;6.07;;;3.67;;
38182;SDS011;23991;52.430;10.586;2022-09-29T11:46:28;5.95;;;3.88;;
38182;SDS011;23991;52.430;10.586;2022-09-29T11:49:24;4.75;;;3.67;;
38182;SDS011;23991;52.430;10.586;2022-09-29T11:52:06;4.50;;;3.10;;
38182;SDS011;23991;52.430;10.586;2022-09-29T11:55:00;5.80;;;2.80;;
38182;SDS011;23991;52.430;10.586;2022-09-29T12:03:40;5.30;;;2.67;;
38182;SDS011;23991;52.430;10.586;2022-09-29T12:14:08;4.80;;;2.28;;
38182;SDS011;23991;52.430;10.586;2022-09-29T12:17:02;2.97;;;2.50;;
38182;SDS011;23991;52.430;10.586;2022-09-29T12:19:35;4.15;;;2.72;;
38182;SDS011;23991;52.430;10.586;2022-09-29T12:22:06;4.47;;;2.70;;
38182;SDS011;23991;52.430;10.586;2022-09-29T12:27:04;3.58;;;2.50;;
38182;SDS011;23991;52.430;10.586;2022-09-29T12:29:37;3.78;;;2.60;;
38182;SDS011;23991;52.430;10.586;2022-09-29T12:32:19;5.07;;;2.90;;
38182;SDS011;23991;52.430;10.586;2022-09-29T12:37:33;5.70;;;3.25;;
38182;SDS011;23991;52.430;10.586;2022-09-29T12:40:06;4.68;;;3.28;;
38182;SDS011;23991;52.430;10.586;2022-09-29T12:45:25;4.47;;;2.40;;
38182;SDS011;23991;52.430;10.586;2022-09-29T12:48:16;4.10;;;2.30;;
38182;SDS011;23991;52.430;10.586;2022-09-29T12:50:47;4.60;;;2.30;;
38182;SDS011;23991;52.430;10.586;2022-09-29T12:53:23;2.95;;;1.70;;
38182;SDS011;23991;52.430;10.586;2022-09-29T12:56:02;2.30;;;1.70;;
38182;SDS011;23991;52.430;10.586;2022-09-29T12:58:49;3.65;;;1.70;;
38182;SDS011;23991;52.430;10.586;2022-09-29T13:01:38;3.53;;;1.80;;
38182;SDS011;23991;52.430;10.586;2022-09-29T13:04:10;3.67;;;1.98;;
38182;SDS011;23991;52.430;10.586;2022-09-29T13:21:14;2.60;;;1.80;;
38182;SDS011;23991;52.430;10.586;2022-09-29T13:23:58;2.90;;;1.83;;
38182;SDS011;23991;52.430;10.586;2022-09-29T13:29:48;2.55;;;1.60;;
38182;SDS011;23991;52.430;10.586;2022-09-29T13:32:18;3.22;;;1.77;;
38182;SDS011;23991;52.430;10.586;2022-09-29T13:34:46;3.97;;;1.70;;
38182;SDS011;23991;52.430;10.586;2022-09-29T13:37:21;2.88;;;1.55;;
38182;SDS011;23991;52.430;10.586;2022-09-29T13:39:59;2.80;;;1.77;;
38182;SDS011;23991;52.430;10.586;2022-09-29T13:45:12;3.13;;;1.40;;
38182;SDS011;23991;52.430;10.586;2022-09-29T13:47:43;3.40;;;1.55;;
38182;SDS011;23991;52.430;10.586;2022-09-29T14:00:52;4.28;;;2.10;;
38182;SDS011;23991;52.430;10.586;2022-09-29T14:03:22;2.80;;;1.65;;
38182;SDS011;23991;52.430;10.586;2022-09-29T14:14:17;3.95;;;1.80;;
38182;SDS011;23991;52.430;10.586;2022-09-29T14:16:51;2.92;;;1.70;;
38182;SDS011;23991;52.430;10.586;2022-09-29T14:24:54;4.10;;;1.63;;
38182;SDS011;23991;52.430;10.586;2022-09-29T14:27:41;2.75;;;1.60;;
38182;SDS011;23991;52.430;10.586;2022-09-29T14:35:27;5.68;;;2.53;;
38182;SDS011;23991;52.430;10.586;2022-09-29T14:57:48;3.35;;;1.50;;
38182;SDS011;23991;52.430;10.586;2022-09-29T15:00:31;5.75;;;1.80;;
38182;SDS011;23991;52.430;10.586;2022-09-29T15:03:29;2.35;;;1.70;;
38182;SDS011;23991;52.430;10.586;2022-09-29T15:08:45;3.75;;;1.55;;
38182;SDS011;23991;52.430;10.586;2022-09-29T15:11:32;1.95;;;1.33;;
38182;SDS011;23991;52.430;10.586;2022-09-29T15:14:15;1.55;;;1.20;;
38182;SDS011;23991;52.430;10.586;2022-09-29T15:22:25;3.22;;;1.63;;
38182;SDS011;23991;52.430;10.586;2022-09-29T15:25:05;3.00;;;1.33;;
38182;SDS011;23991;52.430;10.586;2022-09-29T15:27:35;2.45;;;1.50;;
38182;SDS011;23991;52.430;10.586;2022-09-29T15:30:03;2.08;;;1.40;;
38182;SDS011;23991;52.430;10.586;2022-09-29T15:32:30;2.10;;;1.23;;
38182;SDS011;23991;52.430;10.586;2022-09-29T15:35:00;1.90;;;1.25;;
38182;SDS011;23991;52.430;10.586;2022-09-29T15:37:53;3.22;;;1.20;;
38182;SDS011;23991;52.430;10.586;2022-09-29T15:40:22;2.00;;;1.20;;
38182;SDS011;23991;52.430;10.586;2022-09-29T15:42:50;2.92;;;1.40;;
38182;SDS011;23991;52.430;10.586;2022-09-29T15:48:04;1.70;;;1.20;;
38182;SDS011;23991;52.430;10.586;2022-09-29T15:50:33;2.15;;;1.30;;
38182;SDS011;23991;52.430;10.586;2022-09-29T15:53:05;2.60;;;1.63;;
38182;SDS011;23991;52.430;10.586;2022-09-29T15:55:32;2.33;;;1.35;;
38182;SDS011;23991;52.430;10.586;2022-09-29T15:57:58;2.50;;;1.23;;
38182;SDS011;23991;52.430;10.586;2022-09-29T16:05:32;2.97;;;1.38;;
38182;SDS011;23991;52.430;10.586;2022-09-29T16:08:02;2.17;;;1.50;;
38182;SDS011;23991;52.430;10.586;2022-09-29T16:10:30;3.97;;;1.58;;
38182;SDS011;23991;52.430;10.586;2022-09-29T16:13:02;2.28;;;1.50;;
38182;SDS011;23991;52.430;10.586;2022-09-29T16:15:33;7.85;;;1.80;;
38182;SDS011;23991;52.430;10.586;2022-09-29T16:18:07;4.05;;;1.50;;
38182;SDS011;23991;52.430;10.586;2022-09-29T16:20:34;2.85;;;1.67;;
38182;SDS011;23991;52.430;10.586;2022-09-29T16:23:04;4.00;;;1.98;;
38182;SDS011;23991;52.430;10.586;2022-09-29T16:28:35;3.42;;;2.63;;
38182;SDS011;23991;52.430;10.586;2022-09-29T16:31:04;3.95;;;2.72;;
38182;SDS011;23991;52.430;10.586;2022-09-29T16:33:34;7.05;;;3.08;;
38182;SDS011;23991;52.430;10.586;2022-09-29T16:36:13;4.20;;;3.08;;
38182;SDS011;23991;52.430;10.586;2022-09-29T16:38:44;4.80;;;3.30;;
38182;SDS011;23991;52.430;10.586;2022-09-29T16:41:14;7.22;;;2.97;;
38182;SDS011;23991;52.430;10.586;2022-09-29T16:43:45;3.58;;;2.50;;
38182;SDS011;23991;52.430;10.586;2022-09-29T16:46:19;4.43;;;2.53;;
38182;SDS011;23991;52.430;10.586;2022-09-29T16:48:46;4.25;;;2.35;;
38182;SDS011;23991;52.430;10.586;2022-09-29T16:51:14;8.25;;;2.30;;
38182;SDS011;23991;52.430;10.586;2022-09-29T16:53:42;4.13;;;2.20;;
38182;SDS011;23991;52.430;10.586;2022-09-29T16:56:14;4.80;;;2.30;;
38182;SDS011;23991;52.430;10.586;2022-09-29T17:01:36;3.80;;;2.42;;
38182;SDS011;23991;52.430;10.586;2022-09-29T17:04:02;2.75;;;2.00;;
38182;SDS011;23991;52.430;10.586;2022-09-29T17:06:28;4.07;;;2.42;;
38182;SDS011;23991;52.430;10.586;2022-09-29T17:08:55;4.50;;;2.10;;
38182;SDS011;23991;52.430;10.586;2022-09-29T17:11:22;4.10;;;2.13;;
38182;SDS011;23991;52.430;10.586;2022-09-29T17:13:47;5.38;;;2.40;;
38182;SDS011;23991;52.430;10.586;2022-09-29T17:16:14;3.65;;;2.40;;
38182;SDS011;23991;52.430;10.586;2022-09-29T17:18:45;3.08;;;2.25;;
38182;SDS011;23991;52.430;10.586;2022-09-29T17:21:13;4.65;;;2.53;;
38182;SDS011;23991;52.430;10.586;2022-09-29T17:23:38;5.40;;;2.42;;
38182;SDS011;23991;52.430;10.586;2022-09-29T17:26:10;4.20;;;2.20;;
38182;SDS011;23991;52.430;10.586;2022-09-29T17:29:06;3.70;;;2.10;;
38182;SDS011;23991;52.430;10.586;2022-09-29T17:31:32;2.65;;;1.75;;
38182;SDS011;23991;52.430;10.586;2022-09-29T17:33:57;3.25;;;1.70;;
38182;SDS011;23991;52.430;10.586;2022-09-29T17:36:23;2.92;;;1.85;;
38182;SDS011;23991;52.430;10.586;2022-09-29T17:38:49;6.03;;;2.33;;
38182;SDS011;23991;52.430;10.586;2022-09-29T17:41:16;3.75;;;2.60;;
38182;SDS011;23991;52.430;10.586;2022-09-29T17:43:42;6.50;;;3.70;;
38182;SDS011;23991;52.430;10.586;2022-09-29T17:46:10;6.65;;;4.68;;
38182;SDS011;23991;52.430;10.586;2022-09-29T17:48:37;5.88;;;3.97;;
38182;SDS011;23991;52.430;10.586;2022-09-29T17:51:03;6.13;;;3.50;;
38182;SDS011;23991;52.430;10.586;2022-09-29T17:53:33;6.72;;;3.63;;
38182;SDS011;23991;52.430;10.586;2022-09-29T17:55:58;6.63;;;3.10;;
38182;SDS011;23991;52.430;10.586;2022-09-29T17:58:26;4.80;;;3.28;;
38182;SDS011;23991;52.430;10.586;2022-09-29T18:00:52;4.50;;;3.13;;
38182;SDS011;23991;52.430;10.586;2022-09-29T18:03:21;6.88;;;3.60;;
38182;SDS011;23991;52.430;10.586;2022-09-29T18:05:52;7.53;;;5.70;;
38182;SDS011;23991;52.430;10.586;2022-09-29T18:08:24;8.48;;;6.10;;
38182;SDS011;23991;52.430;10.586;2022-09-29T18:10:53;6.70;;;4.88;;
38182;SDS011;23991;52.430;10.586;2022-09-29T18:13:23;6.75;;;4.90;;
38182;SDS011;23991;52.430;10.586;2022-09-29T18:15:55;7.28;;;4.88;;
38182;SDS011;23991;52.430;10.586;2022-09-29T18:18:22;7.15;;;5.03;;
38182;SDS011;23991;52.430;10.586;2022-09-29T18:20:48;8.25;;;4.38;;
38182;SDS011;23991;52.430;10.586;2022-09-29T18:23:15;8.57;;;4.80;;
38182;SDS011;23991;52.430;10.586;2022-09-29T18:25:41;5.75;;;3.92;;
38182;SDS011;23991;52.430;10.586;2022-09-29T18:28:09;6.43;;;3.60;;